sensor_id;sensor_type;location;lat;lon;timestamp;P1;durP1;ratioP1;P2;durP2;ratioP2
17812;SDS011;9030;50.792;8.320;2022-08-19T00:02:23;33.72;;;30.90;;
17812;SDS011;9030;50.792;8.320;2022-08-19T00:04:50;34.72;;;31.60;;
17812;SDS011;9030;50.792;8.320;2022-08-19T00:07:17;34.47;;;31.48;;
17812;SDS011;9030;50.792;8.320;2022-08-19T00:09:44;38.75;;;35.25;;
17812;SDS011;9030;50.792;8.320;2022-08-19T00:12:11;36.67;;;33.33;;
17812;SDS011;9030;50.792;8.320;2022-08-19T00:14:38;33.95;;;30.75;;
17812;SDS011;9030;50.792;8.320;2022-08-19T00:17:06;35.42;;;32.33;;
17812;SDS011;9030;50.792;8.320;2022-08-19T00:19:35;37.72;;;34.17;;
17812;SDS011;9030;50.792;8.320;2022-08-19T00:22:03;32.00;;;28.90;;
17812;SDS011;9030;50.792;8.320;2022-08-19T00:24:30;33.60;;;30.63;;
17812;SDS011;9030;50.792;8.320;2022-08-19T00:26:58;28.33;;;25.75;;
17812;SDS011;9030;50.792;8.320;2022-08-19T00:29:26;30.90;;;28.00;;
17812;SDS011;9030;50.792;8.320;2022-08-19T00:31:53;31.08;;;28.23;;
17812;SDS011;9030;50.792;8.320;2022-08-19T00:34:23;32.58;;;29.67;;
17812;SDS011;9030;50.792;8.320;2022-08-19T00:36:54;31.88;;;29.10;;
17812;SDS011;9030;50.792;8.320;2022-08-19T00:39:21;32.42;;;29.63;;
17812;SDS011;9030;50.792;8.320;2022-08-19T00:41:49;30.63;;;27.98;;
17812;SDS011;9030;50.792;8.320;2022-08-19T00:44:17;35.22;;;31.98;;
17812;SDS011;9030;50.792;8.320;2022-08-19T00:46:46;37.70;;;34.28;;
17812;SDS011;9030;50.792;8.320;2022-08-19T00:49:15;33.30;;;30.40;;
17812;SDS011;9030;50.792;8.320;2022-08-19T00:51:47;39.90;;;36.55;;
17812;SDS011;9030;50.792;8.320;2022-08-19T00:54:18;36.42;;;33.22;;
17812;SDS011;9030;50.792;8.320;2022-08-19T00:56:46;36.63;;;33.33;;
17812;SDS011;9030;50.792;8.320;2022-08-19T00:59:13;36.28;;;33.30;;
17812;SDS011;9030;50.792;8.320;2022-08-19T01:01:41;36.47;;;33.13;;
17812;SDS011;9030;50.792;8.320;2022-08-19T01:04:09;36.60;;;33.25;;
17812;SDS011;9030;50.792;8.320;2022-08-19T01:06:36;34.30;;;31.15;;
17812;SDS011;9030;50.792;8.320;2022-08-19T01:09:05;34.22;;;31.10;;
17812;SDS011;9030;50.792;8.320;2022-08-19T01:11:35;29.25;;;26.65;;
17812;SDS011;9030;50.792;8.320;2022-08-19T01:14:05;34.15;;;30.77;;
17812;SDS011;9030;50.792;8.320;2022-08-19T01:16:34;30.15;;;27.45;;
17812;SDS011;9030;50.792;8.320;2022-08-19T01:19:02;30.05;;;27.50;;
17812;SDS011;9030;50.792;8.320;2022-08-19T01:21:37;30.30;;;27.60;;
17812;SDS011;9030;50.792;8.320;2022-08-19T01:24:08;27.52;;;24.92;;
17812;SDS011;9030;50.792;8.320;2022-08-19T01:26:38;26.88;;;24.45;;
17812;SDS011;9030;50.792;8.320;2022-08-19T01:29:07;28.98;;;26.48;;
17812;SDS011;9030;50.792;8.320;2022-08-19T01:31:34;28.55;;;26.13;;
17812;SDS011;9030;50.792;8.320;2022-08-19T01:34:02;28.80;;;26.25;;
17812;SDS011;9030;50.792;8.320;2022-08-19T01:36:30;29.08;;;26.38;;
17812;SDS011;9030;50.792;8.320;2022-08-19T01:38:58;29.63;;;27.05;;
17812;SDS011;9030;50.792;8.320;2022-08-19T01:41:28;27.80;;;25.13;;
17812;SDS011;9030;50.792;8.320;2022-08-19T01:43:54;28.30;;;25.67;;
17812;SDS011;9030;50.792;8.320;2022-08-19T01:46:22;32.63;;;29.83;;
17812;SDS011;9030;50.792;8.320;2022-08-19T01:48:48;29.35;;;26.70;;
17812;SDS011;9030;50.792;8.320;2022-08-19T01:51:15;26.73;;;24.33;;
17812;SDS011;9030;50.792;8.320;2022-08-19T01:53:45;23.55;;;21.45;;
17812;SDS011;9030;50.792;8.320;2022-08-19T01:56:13;25.08;;;22.77;;
17812;SDS011;9030;50.792;8.320;2022-08-19T01:58:42;29.90;;;27.15;;
17812;SDS011;9030;50.792;8.320;2022-08-19T02:01:15;26.77;;;23.98;;
17812;SDS011;9030;50.792;8.320;2022-08-19T02:03:42;24.17;;;21.90;;
17812;SDS011;9030;50.792;8.320;2022-08-19T02:06:09;26.15;;;23.67;;
17812;SDS011;9030;50.792;8.320;2022-08-19T02:08:37;21.92;;;19.90;;
17812;SDS011;9030;50.792;8.320;2022-08-19T02:11:05;23.75;;;21.50;;
17812;SDS011;9030;50.792;8.320;2022-08-19T02:13:33;23.88;;;21.77;;
17812;SDS011;9030;50.792;8.320;2022-08-19T02:16:02;25.45;;;23.02;;
17812;SDS011;9030;50.792;8.320;2022-08-19T02:18:28;29.15;;;26.48;;
17812;SDS011;9030;50.792;8.320;2022-08-19T02:20:55;28.52;;;26.02;;
17812;SDS011;9030;50.792;8.320;2022-08-19T02:23:22;30.25;;;27.17;;
17812;SDS011;9030;50.792;8.320;2022-08-19T02:25:48;27.83;;;25.02;;
17812;SDS011;9030;50.792;8.320;2022-08-19T02:28:15;31.98;;;28.67;;
17812;SDS011;9030;50.792;8.320;2022-08-19T02:30:42;32.60;;;29.63;;
17812;SDS011;9030;50.792;8.320;2022-08-19T02:33:10;32.45;;;29.33;;
17812;SDS011;9030;50.792;8.320;2022-08-19T02:35:40;26.42;;;23.90;;
17812;SDS011;9030;50.792;8.320;2022-08-19T02:38:07;22.45;;;20.23;;
17812;SDS011;9030;50.792;8.320;2022-08-19T02:40:52;24.45;;;21.88;;
17812;SDS011;9030;50.792;8.320;2022-08-19T02:43:21;21.98;;;19.67;;
17812;SDS011;9030;50.792;8.320;2022-08-19T02:45:49;24.88;;;22.58;;
17812;SDS011;9030;50.792;8.320;2022-08-19T02:48:18;24.45;;;22.00;;
17812;SDS011;9030;50.792;8.320;2022-08-19T02:50:46;21.90;;;19.80;;
17812;SDS011;9030;50.792;8.320;2022-08-19T02:53:17;20.83;;;18.83;;
17812;SDS011;9030;50.792;8.320;2022-08-19T02:55:44;24.27;;;21.90;;
17812;SDS011;9030;50.792;8.320;2022-08-19T02:58:12;26.80;;;24.23;;
17812;SDS011;9030;50.792;8.320;2022-08-19T03:00:42;25.88;;;23.50;;
17812;SDS011;9030;50.792;8.320;2022-08-19T03:03:10;24.42;;;22.17;;
17812;SDS011;9030;50.792;8.320;2022-08-19T03:05:38;23.45;;;21.17;;
17812;SDS011;9030;50.792;8.320;2022-08-19T03:08:05;25.95;;;23.35;;
17812;SDS011;9030;50.792;8.320;2022-08-19T03:10:32;24.38;;;22.20;;
17812;SDS011;9030;50.792;8.320;2022-08-19T03:12:59;26.48;;;24.02;;
17812;SDS011;9030;50.792;8.320;2022-08-19T03:15:26;22.10;;;20.02;;
17812;SDS011;9030;50.792;8.320;2022-08-19T03:17:52;25.92;;;23.42;;
17812;SDS011;9030;50.792;8.320;2022-08-19T03:20:19;28.73;;;25.95;;
17812;SDS011;9030;50.792;8.320;2022-08-19T03:22:47;23.95;;;21.45;;
17812;SDS011;9030;50.792;8.320;2022-08-19T03:25:14;27.00;;;24.45;;
17812;SDS011;9030;50.792;8.320;2022-08-19T03:27:41;25.58;;;23.02;;
17812;SDS011;9030;50.792;8.320;2022-08-19T03:30:09;22.52;;;20.35;;
17812;SDS011;9030;50.792;8.320;2022-08-19T03:32:36;22.42;;;20.08;;
17812;SDS011;9030;50.792;8.320;2022-08-19T03:35:03;23.42;;;20.90;;
17812;SDS011;9030;50.792;8.320;2022-08-19T03:37:31;23.48;;;21.08;;
17812;SDS011;9030;50.792;8.320;2022-08-19T03:39:59;25.10;;;21.98;;
17812;SDS011;9030;50.792;8.320;2022-08-19T03:42:27;33.13;;;30.23;;
17812;SDS011;9030;50.792;8.320;2022-08-19T03:44:54;27.83;;;25.30;;
17812;SDS011;9030;50.792;8.320;2022-08-19T03:47:21;30.98;;;28.17;;
17812;SDS011;9030;50.792;8.320;2022-08-19T03:49:47;25.83;;;23.52;;
17812;SDS011;9030;50.792;8.320;2022-08-19T03:52:14;23.13;;;20.80;;
17812;SDS011;9030;50.792;8.320;2022-08-19T03:54:41;24.13;;;21.55;;
17812;SDS011;9030;50.792;8.320;2022-08-19T03:57:09;20.75;;;18.67;;
17812;SDS011;9030;50.792;8.320;2022-08-19T03:59:36;27.85;;;25.33;;
17812;SDS011;9030;50.792;8.320;2022-08-19T04:02:07;27.42;;;24.83;;
17812;SDS011;9030;50.792;8.320;2022-08-19T04:04:36;23.48;;;21.27;;
17812;SDS011;9030;50.792;8.320;2022-08-19T04:07:05;20.23;;;18.13;;
17812;SDS011;9030;50.792;8.320;2022-08-19T04:09:33;19.58;;;17.67;;
17812;SDS011;9030;50.792;8.320;2022-08-19T04:12:01;19.00;;;16.83;;
17812;SDS011;9030;50.792;8.320;2022-08-19T04:14:31;19.92;;;17.85;;
17812;SDS011;9030;50.792;8.320;2022-08-19T04:17:00;20.58;;;18.40;;
17812;SDS011;9030;50.792;8.320;2022-08-19T04:19:29;19.33;;;17.42;;
17812;SDS011;9030;50.792;8.320;2022-08-19T04:21:57;23.42;;;21.10;;
17812;SDS011;9030;50.792;8.320;2022-08-19T04:24:24;27.10;;;24.55;;
17812;SDS011;9030;50.792;8.320;2022-08-19T04:26:51;26.40;;;23.98;;
17812;SDS011;9030;50.792;8.320;2022-08-19T04:29:19;25.80;;;23.35;;
17812;SDS011;9030;50.792;8.320;2022-08-19T04:31:53;23.60;;;21.40;;
17812;SDS011;9030;50.792;8.320;2022-08-19T04:34:22;20.33;;;18.20;;
17812;SDS011;9030;50.792;8.320;2022-08-19T04:36:50;19.83;;;17.73;;
17812;SDS011;9030;50.792;8.320;2022-08-19T04:39:19;20.13;;;18.15;;
17812;SDS011;9030;50.792;8.320;2022-08-19T04:41:47;19.52;;;17.60;;
17812;SDS011;9030;50.792;8.320;2022-08-19T04:44:32;19.67;;;17.20;;
17812;SDS011;9030;50.792;8.320;2022-08-19T04:47:01;20.80;;;18.70;;
17812;SDS011;9030;50.792;8.320;2022-08-19T04:49:30;19.63;;;17.73;;
17812;SDS011;9030;50.792;8.320;2022-08-19T04:51:57;24.23;;;21.80;;
17812;SDS011;9030;50.792;8.320;2022-08-19T04:54:24;17.95;;;16.23;;
17812;SDS011;9030;50.792;8.320;2022-08-19T04:56:51;17.80;;;15.68;;
17812;SDS011;9030;50.792;8.320;2022-08-19T04:59:19;17.73;;;15.93;;
17812;SDS011;9030;50.792;8.320;2022-08-19T05:01:46;15.70;;;13.98;;
17812;SDS011;9030;50.792;8.320;2022-08-19T05:04:17;20.40;;;18.25;;
17812;SDS011;9030;50.792;8.320;2022-08-19T05:06:45;18.58;;;16.75;;
17812;SDS011;9030;50.792;8.320;2022-08-19T05:09:12;19.05;;;15.73;;
17812;SDS011;9030;50.792;8.320;2022-08-19T05:11:39;22.25;;;17.02;;
17812;SDS011;9030;50.792;8.320;2022-08-19T05:14:06;22.52;;;18.98;;
17812;SDS011;9030;50.792;8.320;2022-08-19T05:16:33;24.10;;;21.65;;
17812;SDS011;9030;50.792;8.320;2022-08-19T05:19:00;25.38;;;22.98;;
17812;SDS011;9030;50.792;8.320;2022-08-19T05:21:46;28.30;;;25.75;;
17812;SDS011;9030;50.792;8.320;2022-08-19T05:24:30;27.77;;;25.27;;
17812;SDS011;9030;50.792;8.320;2022-08-19T05:26:59;22.75;;;20.17;;
17812;SDS011;9030;50.792;8.320;2022-08-19T05:29:27;18.20;;;16.38;;
17812;SDS011;9030;50.792;8.320;2022-08-19T05:31:56;18.42;;;16.52;;
17812;SDS011;9030;50.792;8.320;2022-08-19T05:34:23;19.60;;;17.60;;
17812;SDS011;9030;50.792;8.320;2022-08-19T05:36:53;24.25;;;21.77;;
17812;SDS011;9030;50.792;8.320;2022-08-19T05:39:22;22.35;;;20.15;;
17812;SDS011;9030;50.792;8.320;2022-08-19T05:41:50;28.35;;;25.85;;
17812;SDS011;9030;50.792;8.320;2022-08-19T05:44:19;31.45;;;28.65;;
17812;SDS011;9030;50.792;8.320;2022-08-19T05:46:46;30.08;;;27.38;;
17812;SDS011;9030;50.792;8.320;2022-08-19T05:49:14;27.85;;;25.27;;
17812;SDS011;9030;50.792;8.320;2022-08-19T05:51:42;26.00;;;23.70;;
17812;SDS011;9030;50.792;8.320;2022-08-19T05:54:10;25.20;;;22.70;;
17812;SDS011;9030;50.792;8.320;2022-08-19T05:56:38;32.67;;;29.90;;
17812;SDS011;9030;50.792;8.320;2022-08-19T05:59:05;28.63;;;26.08;;
17812;SDS011;9030;50.792;8.320;2022-08-19T06:01:34;20.70;;;18.73;;
17812;SDS011;9030;50.792;8.320;2022-08-19T06:04:01;20.40;;;18.58;;
17812;SDS011;9030;50.792;8.320;2022-08-19T06:06:28;22.48;;;20.08;;
17812;SDS011;9030;50.792;8.320;2022-08-19T06:08:55;24.85;;;22.55;;
17812;SDS011;9030;50.792;8.320;2022-08-19T06:11:30;27.83;;;25.13;;
17812;SDS011;9030;50.792;8.320;2022-08-19T06:14:00;29.83;;;26.63;;
17812;SDS011;9030;50.792;8.320;2022-08-19T06:16:28;29.95;;;27.13;;
17812;SDS011;9030;50.792;8.320;2022-08-19T06:18:58;28.88;;;26.08;;
17812;SDS011;9030;50.792;8.320;2022-08-19T06:21:27;28.25;;;25.60;;
17812;SDS011;9030;50.792;8.320;2022-08-19T06:23:55;27.33;;;24.77;;
17812;SDS011;9030;50.792;8.320;2022-08-19T06:26:24;30.23;;;27.48;;
17812;SDS011;9030;50.792;8.320;2022-08-19T06:28:51;29.08;;;26.33;;
17812;SDS011;9030;50.792;8.320;2022-08-19T06:31:25;35.90;;;32.55;;
17812;SDS011;9030;50.792;8.320;2022-08-19T06:33:53;40.45;;;36.22;;
17812;SDS011;9030;50.792;8.320;2022-08-19T06:36:21;37.92;;;34.50;;
17812;SDS011;9030;50.792;8.320;2022-08-19T06:38:52;39.28;;;35.78;;
17812;SDS011;9030;50.792;8.320;2022-08-19T06:41:19;40.72;;;36.88;;
17812;SDS011;9030;50.792;8.320;2022-08-19T06:43:47;34.75;;;31.65;;
17812;SDS011;9030;50.792;8.320;2022-08-19T06:46:14;34.58;;;31.48;;
17812;SDS011;9030;50.792;8.320;2022-08-19T06:48:42;31.88;;;29.00;;
17812;SDS011;9030;50.792;8.320;2022-08-19T06:51:09;32.95;;;29.90;;
17812;SDS011;9030;50.792;8.320;2022-08-19T06:53:36;34.75;;;31.63;;
17812;SDS011;9030;50.792;8.320;2022-08-19T06:56:04;33.38;;;30.25;;
17812;SDS011;9030;50.792;8.320;2022-08-19T06:58:31;32.25;;;29.20;;
17812;SDS011;9030;50.792;8.320;2022-08-19T07:01:00;31.65;;;28.60;;
17812;SDS011;9030;50.792;8.320;2022-08-19T07:03:29;30.73;;;27.80;;
17812;SDS011;9030;50.792;8.320;2022-08-19T07:05:57;35.22;;;32.08;;
17812;SDS011;9030;50.792;8.320;2022-08-19T07:08:28;35.05;;;31.27;;
17812;SDS011;9030;50.792;8.320;2022-08-19T07:10:54;31.80;;;28.60;;
17812;SDS011;9030;50.792;8.320;2022-08-19T07:13:21;34.88;;;31.65;;
17812;SDS011;9030;50.792;8.320;2022-08-19T07:15:48;30.00;;;26.88;;
17812;SDS011;9030;50.792;8.320;2022-08-19T07:18:17;33.20;;;30.23;;
17812;SDS011;9030;50.792;8.320;2022-08-19T07:20:45;34.33;;;31.40;;
17812;SDS011;9030;50.792;8.320;2022-08-19T07:23:12;32.47;;;29.65;;
17812;SDS011;9030;50.792;8.320;2022-08-19T07:25:39;33.47;;;30.38;;
17812;SDS011;9030;50.792;8.320;2022-08-19T07:28:05;29.30;;;26.50;;
17812;SDS011;9030;50.792;8.320;2022-08-19T07:30:35;28.08;;;25.50;;
17812;SDS011;9030;50.792;8.320;2022-08-19T07:33:03;31.17;;;28.02;;
17812;SDS011;9030;50.792;8.320;2022-08-19T07:35:31;25.25;;;22.65;;
17812;SDS011;9030;50.792;8.320;2022-08-19T07:37:58;26.98;;;23.70;;
17812;SDS011;9030;50.792;8.320;2022-08-19T07:40:27;23.52;;;21.27;;
17812;SDS011;9030;50.792;8.320;2022-08-19T07:42:54;23.88;;;21.38;;
17812;SDS011;9030;50.792;8.320;2022-08-19T07:45:21;20.67;;;18.33;;
17812;SDS011;9030;50.792;8.320;2022-08-19T07:47:48;21.52;;;19.27;;
17812;SDS011;9030;50.792;8.320;2022-08-19T07:50:15;26.98;;;24.45;;
17812;SDS011;9030;50.792;8.320;2022-08-19T07:52:44;24.10;;;21.77;;
17812;SDS011;9030;50.792;8.320;2022-08-19T07:55:11;22.13;;;19.58;;
17812;SDS011;9030;50.792;8.320;2022-08-19T07:57:38;20.38;;;18.38;;
17812;SDS011;9030;50.792;8.320;2022-08-19T08:00:06;21.35;;;19.13;;
17812;SDS011;9030;50.792;8.320;2022-08-19T08:02:33;24.08;;;21.88;;
17812;SDS011;9030;50.792;8.320;2022-08-19T08:05:00;21.25;;;18.95;;
17812;SDS011;9030;50.792;8.320;2022-08-19T08:07:45;19.00;;;16.58;;
17812;SDS011;9030;50.792;8.320;2022-08-19T08:10:29;23.67;;;21.25;;
17812;SDS011;9030;50.792;8.320;2022-08-19T08:12:57;25.05;;;22.65;;
17812;SDS011;9030;50.792;8.320;2022-08-19T08:15:23;22.95;;;20.65;;
17812;SDS011;9030;50.792;8.320;2022-08-19T08:17:50;25.92;;;23.38;;
17812;SDS011;9030;50.792;8.320;2022-08-19T08:20:17;22.60;;;18.20;;
17812;SDS011;9030;50.792;8.320;2022-08-19T08:22:48;21.95;;;19.05;;
17812;SDS011;9030;50.792;8.320;2022-08-19T08:25:33;22.02;;;19.88;;
17812;SDS011;9030;50.792;8.320;2022-08-19T08:28:01;22.90;;;20.70;;
17812;SDS011;9030;50.792;8.320;2022-08-19T08:30:29;21.25;;;19.17;;
17812;SDS011;9030;50.792;8.320;2022-08-19T08:32:57;20.60;;;18.52;;
17812;SDS011;9030;50.792;8.320;2022-08-19T08:35:24;22.85;;;20.73;;
17812;SDS011;9030;50.792;8.320;2022-08-19T08:37:53;19.05;;;17.13;;
17812;SDS011;9030;50.792;8.320;2022-08-19T08:40:22;22.65;;;19.90;;
17812;SDS011;9030;50.792;8.320;2022-08-19T08:42:55;22.00;;;19.73;;
17812;SDS011;9030;50.792;8.320;2022-08-19T08:45:27;21.02;;;18.70;;
17812;SDS011;9030;50.792;8.320;2022-08-19T08:47:55;19.05;;;17.05;;
17812;SDS011;9030;50.792;8.320;2022-08-19T08:50:27;23.95;;;21.52;;
17812;SDS011;9030;50.792;8.320;2022-08-19T08:53:02;21.27;;;19.15;;
17812;SDS011;9030;50.792;8.320;2022-08-19T08:55:32;21.80;;;19.67;;
17812;SDS011;9030;50.792;8.320;2022-08-19T08:58:00;22.25;;;20.15;;
17812;SDS011;9030;50.792;8.320;2022-08-19T09:00:32;20.92;;;18.73;;
17812;SDS011;9030;50.792;8.320;2022-08-19T09:03:03;23.15;;;21.05;;
17812;SDS011;9030;50.792;8.320;2022-08-19T09:05:37;20.58;;;15.90;;
17812;SDS011;9030;50.792;8.320;2022-08-19T09:08:11;20.02;;;18.08;;
17812;SDS011;9030;50.792;8.320;2022-08-19T09:10:44;19.08;;;16.88;;
17812;SDS011;9030;50.792;8.320;2022-08-19T09:13:17;20.50;;;18.17;;
17812;SDS011;9030;50.792;8.320;2022-08-19T09:15:53;22.15;;;16.50;;
17812;SDS011;9030;50.792;8.320;2022-08-19T09:18:37;19.75;;;17.85;;
17812;SDS011;9030;50.792;8.320;2022-08-19T09:21:05;20.30;;;18.20;;
17812;SDS011;9030;50.792;8.320;2022-08-19T09:23:34;21.10;;;19.05;;
17812;SDS011;9030;50.792;8.320;2022-08-19T09:26:06;22.98;;;20.90;;
17812;SDS011;9030;50.792;8.320;2022-08-19T09:28:34;22.33;;;20.35;;
17812;SDS011;9030;50.792;8.320;2022-08-19T09:31:01;25.92;;;23.63;;
17812;SDS011;9030;50.792;8.320;2022-08-19T09:33:28;22.88;;;20.70;;
17812;SDS011;9030;50.792;8.320;2022-08-19T09:36:01;23.13;;;20.48;;
17812;SDS011;9030;50.792;8.320;2022-08-19T09:38:29;24.23;;;22.08;;
17812;SDS011;9030;50.792;8.320;2022-08-19T09:41:01;25.55;;;22.90;;
17812;SDS011;9030;50.792;8.320;2022-08-19T09:43:29;22.80;;;20.38;;
17812;SDS011;9030;50.792;8.320;2022-08-19T09:45:56;22.92;;;20.60;;
17812;SDS011;9030;50.792;8.320;2022-08-19T09:48:23;21.50;;;19.55;;
17812;SDS011;9030;50.792;8.320;2022-08-19T09:50:50;22.52;;;20.08;;
17812;SDS011;9030;50.792;8.320;2022-08-19T09:53:17;22.25;;;20.05;;
17812;SDS011;9030;50.792;8.320;2022-08-19T09:55:44;21.30;;;19.17;;
17812;SDS011;9030;50.792;8.320;2022-08-19T09:58:12;21.52;;;19.52;;
17812;SDS011;9030;50.792;8.320;2022-08-19T10:00:39;20.95;;;18.92;;
17812;SDS011;9030;50.792;8.320;2022-08-19T10:03:06;21.67;;;19.58;;
17812;SDS011;9030;50.792;8.320;2022-08-19T10:05:32;21.55;;;19.27;;
17812;SDS011;9030;50.792;8.320;2022-08-19T10:08:15;20.85;;;18.80;;
17812;SDS011;9030;50.792;8.320;2022-08-19T10:10:44;17.05;;;15.52;;
17812;SDS011;9030;50.792;8.320;2022-08-19T10:13:14;17.85;;;16.15;;
17812;SDS011;9030;50.792;8.320;2022-08-19T10:15:42;18.50;;;16.80;;
17812;SDS011;9030;50.792;8.320;2022-08-19T10:18:09;17.65;;;15.90;;
17812;SDS011;9030;50.792;8.320;2022-08-19T10:20:36;17.65;;;15.90;;
17812;SDS011;9030;50.792;8.320;2022-08-19T10:23:03;16.27;;;14.68;;
17812;SDS011;9030;50.792;8.320;2022-08-19T10:25:31;20.65;;;17.55;;
17812;SDS011;9030;50.792;8.320;2022-08-19T10:27:58;18.83;;;15.52;;
17812;SDS011;9030;50.792;8.320;2022-08-19T10:30:26;18.52;;;16.73;;
17812;SDS011;9030;50.792;8.320;2022-08-19T10:32:53;17.42;;;15.82;;
17812;SDS011;9030;50.792;8.320;2022-08-19T10:35:20;16.90;;;15.15;;
17812;SDS011;9030;50.792;8.320;2022-08-19T10:37:47;16.83;;;15.23;;
17812;SDS011;9030;50.792;8.320;2022-08-19T10:40:14;20.08;;;18.17;;
17812;SDS011;9030;50.792;8.320;2022-08-19T10:42:41;21.17;;;19.00;;
17812;SDS011;9030;50.792;8.320;2022-08-19T10:45:08;19.30;;;17.40;;
17812;SDS011;9030;50.792;8.320;2022-08-19T10:47:37;16.98;;;15.35;;
17812;SDS011;9030;50.792;8.320;2022-08-19T10:50:04;17.80;;;16.08;;
17812;SDS011;9030;50.792;8.320;2022-08-19T10:52:49;17.85;;;16.25;;
17812;SDS011;9030;50.792;8.320;2022-08-19T10:55:17;18.63;;;16.90;;
17812;SDS011;9030;50.792;8.320;2022-08-19T10:58:02;19.67;;;16.60;;
17812;SDS011;9030;50.792;8.320;2022-08-19T11:00:29;19.05;;;17.25;;
17812;SDS011;9030;50.792;8.320;2022-08-19T11:02:58;16.63;;;15.02;;
17812;SDS011;9030;50.792;8.320;2022-08-19T11:05:25;17.38;;;14.43;;
17812;SDS011;9030;50.792;8.320;2022-08-19T11:07:52;13.60;;;12.15;;
17812;SDS011;9030;50.792;8.320;2022-08-19T11:10:18;12.77;;;11.43;;
17812;SDS011;9030;50.792;8.320;2022-08-19T11:12:45;13.57;;;12.15;;
17812;SDS011;9030;50.792;8.320;2022-08-19T11:15:13;14.77;;;11.85;;
17812;SDS011;9030;50.792;8.320;2022-08-19T11:17:40;12.45;;;11.15;;
17812;SDS011;9030;50.792;8.320;2022-08-19T11:20:10;11.35;;;10.10;;
17812;SDS011;9030;50.792;8.320;2022-08-19T11:22:37;14.85;;;12.52;;
17812;SDS011;9030;50.792;8.320;2022-08-19T11:25:05;14.95;;;13.13;;
17812;SDS011;9030;50.792;8.320;2022-08-19T11:27:33;14.55;;;13.02;;
17812;SDS011;9030;50.792;8.320;2022-08-19T11:30:03;14.65;;;12.95;;
17812;SDS011;9030;50.792;8.320;2022-08-19T11:32:32;14.18;;;12.73;;
17812;SDS011;9030;50.792;8.320;2022-08-19T11:34:59;13.65;;;12.27;;
17812;SDS011;9030;50.792;8.320;2022-08-19T11:37:27;12.02;;;10.80;;
17812;SDS011;9030;50.792;8.320;2022-08-19T11:39:54;13.82;;;12.20;;
17812;SDS011;9030;50.792;8.320;2022-08-19T11:42:20;14.32;;;12.35;;
17812;SDS011;9030;50.792;8.320;2022-08-19T11:45:05;12.48;;;8.70;;
17812;SDS011;9030;50.792;8.320;2022-08-19T11:47:32;11.68;;;9.52;;
17812;SDS011;9030;50.792;8.320;2022-08-19T11:49:59;11.25;;;9.60;;
17812;SDS011;9030;50.792;8.320;2022-08-19T11:52:27;11.15;;;9.07;;
17812;SDS011;9030;50.792;8.320;2022-08-19T11:54:54;9.82;;;8.27;;
17812;SDS011;9030;50.792;8.320;2022-08-19T11:57:21;13.23;;;9.60;;
17812;SDS011;9030;50.792;8.320;2022-08-19T11:59:48;12.57;;;8.65;;
17812;SDS011;9030;50.792;8.320;2022-08-19T12:02:16;11.63;;;8.10;;
17812;SDS011;9030;50.792;8.320;2022-08-19T12:04:43;10.75;;;8.10;;
17812;SDS011;9030;50.792;8.320;2022-08-19T12:07:10;10.20;;;7.80;;
17812;SDS011;9030;50.792;8.320;2022-08-19T12:09:38;15.55;;;8.20;;
17812;SDS011;9030;50.792;8.320;2022-08-19T12:12:05;11.52;;;8.45;;
17812;SDS011;9030;50.792;8.320;2022-08-19T12:14:33;13.45;;;8.27;;
17812;SDS011;9030;50.792;8.320;2022-08-19T12:17:00;13.98;;;8.25;;
17812;SDS011;9030;50.792;8.320;2022-08-19T12:19:29;13.48;;;7.93;;
17812;SDS011;9030;50.792;8.320;2022-08-19T12:21:58;9.63;;;7.10;;
17812;SDS011;9030;50.792;8.320;2022-08-19T12:24:25;11.82;;;7.70;;
17812;SDS011;9030;50.792;8.320;2022-08-19T12:26:53;9.82;;;6.75;;
17812;SDS011;9030;50.792;8.320;2022-08-19T12:29:21;8.40;;;6.88;;
17812;SDS011;9030;50.792;8.320;2022-08-19T12:31:53;9.95;;;6.80;;
17812;SDS011;9030;50.792;8.320;2022-08-19T12:34:25;9.02;;;6.03;;
17812;SDS011;9030;50.792;8.320;2022-08-19T12:36:54;8.40;;;6.28;;
17812;SDS011;9030;50.792;8.320;2022-08-19T12:39:21;7.55;;;6.25;;
17812;SDS011;9030;50.792;8.320;2022-08-19T12:41:48;9.88;;;6.15;;
17812;SDS011;9030;50.792;8.320;2022-08-19T12:44:16;12.23;;;6.55;;
17812;SDS011;9030;50.792;8.320;2022-08-19T12:46:43;7.93;;;6.00;;
17812;SDS011;9030;50.792;8.320;2022-08-19T12:49:09;9.70;;;6.90;;
17812;SDS011;9030;50.792;8.320;2022-08-19T12:51:36;9.85;;;5.63;;
17812;SDS011;9030;50.792;8.320;2022-08-19T12:54:03;7.55;;;5.82;;
17812;SDS011;9030;50.792;8.320;2022-08-19T12:56:30;10.80;;;5.85;;
17812;SDS011;9030;50.792;8.320;2022-08-19T12:59:00;9.57;;;6.22;;
17812;SDS011;9030;50.792;8.320;2022-08-19T13:01:28;8.85;;;5.57;;
17812;SDS011;9030;50.792;8.320;2022-08-19T13:03:57;8.25;;;5.95;;
17812;SDS011;9030;50.792;8.320;2022-08-19T13:06:24;8.30;;;5.30;;
17812;SDS011;9030;50.792;8.320;2022-08-19T13:08:51;11.98;;;6.38;;
17812;SDS011;9030;50.792;8.320;2022-08-19T13:11:19;10.23;;;5.85;;
17812;SDS011;9030;50.792;8.320;2022-08-19T13:13:49;13.07;;;5.90;;
17812;SDS011;9030;50.792;8.320;2022-08-19T13:16:17;7.55;;;5.95;;
17812;SDS011;9030;50.792;8.320;2022-08-19T13:18:46;7.38;;;5.93;;
17812;SDS011;9030;50.792;8.320;2022-08-19T13:21:14;7.22;;;6.40;;
17812;SDS011;9030;50.792;8.320;2022-08-19T13:23:41;8.18;;;6.10;;
17812;SDS011;9030;50.792;8.320;2022-08-19T13:26:09;6.68;;;5.82;;
17812;SDS011;9030;50.792;8.320;2022-08-19T13:28:36;7.38;;;5.72;;
17812;SDS011;9030;50.792;8.320;2022-08-19T13:31:21;10.98;;;7.65;;
17812;SDS011;9030;50.792;8.320;2022-08-19T13:34:09;9.15;;;6.38;;
17812;SDS011;9030;50.792;8.320;2022-08-19T13:36:37;11.40;;;7.07;;
17812;SDS011;9030;50.792;8.320;2022-08-19T13:39:05;10.10;;;7.07;;
17812;SDS011;9030;50.792;8.320;2022-08-19T13:41:33;7.47;;;6.32;;
17812;SDS011;9030;50.792;8.320;2022-08-19T13:44:01;9.98;;;7.35;;
17812;SDS011;9030;50.792;8.320;2022-08-19T13:46:28;7.97;;;6.13;;
17812;SDS011;9030;50.792;8.320;2022-08-19T13:48:55;10.43;;;6.88;;
17812;SDS011;9030;50.792;8.320;2022-08-19T13:51:23;10.88;;;6.18;;
17812;SDS011;9030;50.792;8.320;2022-08-19T13:53:50;10.23;;;7.13;;
17812;SDS011;9030;50.792;8.320;2022-08-19T13:56:17;10.98;;;7.40;;
17812;SDS011;9030;50.792;8.320;2022-08-19T13:58:45;13.00;;;7.85;;
17812;SDS011;9030;50.792;8.320;2022-08-19T14:01:12;8.88;;;7.03;;
17812;SDS011;9030;50.792;8.320;2022-08-19T14:03:45;10.18;;;8.10;;
17812;SDS011;9030;50.792;8.320;2022-08-19T14:06:12;12.13;;;8.15;;
17812;SDS011;9030;50.792;8.320;2022-08-19T14:08:40;10.30;;;8.25;;
17812;SDS011;9030;50.792;8.320;2022-08-19T14:11:07;11.52;;;9.13;;
17812;SDS011;9030;50.792;8.320;2022-08-19T14:13:34;11.05;;;8.48;;
17812;SDS011;9030;50.792;8.320;2022-08-19T14:16:01;11.93;;;9.68;;
17812;SDS011;9030;50.792;8.320;2022-08-19T14:18:32;10.90;;;9.50;;
17812;SDS011;9030;50.792;8.320;2022-08-19T14:20:59;12.43;;;8.50;;
17812;SDS011;9030;50.792;8.320;2022-08-19T14:23:25;10.35;;;8.68;;
17812;SDS011;9030;50.792;8.320;2022-08-19T14:25:53;11.32;;;8.93;;
17812;SDS011;9030;50.792;8.320;2022-08-19T14:28:29;10.90;;;8.98;;
17812;SDS011;9030;50.792;8.320;2022-08-19T14:30:56;9.82;;;8.20;;
17812;SDS011;9030;50.792;8.320;2022-08-19T14:33:22;9.23;;;8.23;;
17812;SDS011;9030;50.792;8.320;2022-08-19T14:35:49;10.77;;;8.05;;
17812;SDS011;9030;50.792;8.320;2022-08-19T14:38:16;13.25;;;9.35;;
17812;SDS011;9030;50.792;8.320;2022-08-19T14:40:44;13.10;;;8.70;;
17812;SDS011;9030;50.792;8.320;2022-08-19T14:43:12;11.00;;;8.07;;
17812;SDS011;9030;50.792;8.320;2022-08-19T14:45:39;10.65;;;8.48;;
17812;SDS011;9030;50.792;8.320;2022-08-19T14:48:06;12.88;;;8.65;;